Time;durP1;ratioP1;P1;durP2;ratioP2;P2;SDS_P1;SDS_P2;PMS_P1;PMS_P2;Temp;Humidity;BMP_temperature;BMP_pressure;BME280_temperature;BME280_humidity;BME280_pressure;Samples;Min_cycle;Max_cycle;Signal;HPM_P1;HPM_P2
2024/01/13 00:00:16;;;;;;;37.80;20.80;;;3.70;99.90;;;;;;4145005;28;20030;-69
2024/01/13 00:02:17;;;;;;;36.05;20.27;;;3.70;99.90;;;;;;4146875;28;20069;-69
2024/01/13 00:04:18;;;;;;;31.67;19.30;;;3.70;99.90;;;;;;4146035;28;20034;-69
2024/01/13 00:06:18;;;;;;;30.88;18.08;;;3.70;99.90;;;;;;4137519;28;20030;-68
2024/01/13 00:08:19;;;;;;;33.80;18.40;;;3.70;99.90;;;;;;4131199;28;20045;-69
2024/01/13 00:10:19;;;;;;;34.53;17.75;;;3.70;99.90;;;;;;4133188;28;20510;-68
2024/01/13 00:12:23;;;;;;;33.65;18.48;;;3.80;99.90;;;;;;4146027;28;20069;-84
2024/01/13 00:14:23;;;;;;;33.60;17.98;;;3.70;99.90;;;;;;4144989;28;20045;-64
2024/01/13 00:16:24;;;;;;;31.77;18.20;;;3.70;99.90;;;;;;4134667;28;20039;-64
2024/01/13 00:18:25;;;;;;;33.13;17.70;;;3.70;99.90;;;;;;4133512;28;20038;-64
2024/01/13 00:20:25;;;;;;;32.80;18.90;;;3.80;99.90;;;;;;4145160;28;20459;-64
2024/01/13 00:22:26;;;;;;;31.20;17.13;;;3.80;99.90;;;;;;4144208;28;20037;-64
2024/01/13 00:24:26;;;;;;;35.78;19.30;;;3.80;99.90;;;;;;4133207;28;20126;-64
2024/01/13 00:26:27;;;;;;;30.50;16.83;;;3.80;99.90;;;;;;4133957;28;20026;-64
2024/01/13 00:28:28;;;;;;;30.83;18.58;;;3.80;99.90;;;;;;4145557;28;20057;-64
2024/01/13 00:30:29;;;;;;;35.97;18.90;;;3.80;99.90;;;;;;4144753;28;20057;-64
2024/01/13 00:32:29;;;;;;;31.73;17.20;;;3.80;99.90;;;;;;4146068;28;20130;-64
2024/01/13 00:34:30;;;;;;;36.88;19.67;;;3.80;99.90;;;;;;4144948;28;20034;-64
2024/01/13 00:36:30;;;;;;;29.45;17.38;;;3.80;99.90;;;;;;4133308;28;20113;-64
2024/01/13 00:38:31;;;;;;;35.55;18.65;;;3.80;99.90;;;;;;4130278;28;20089;-67
2024/01/13 00:40:32;;;;;;;35.78;19.50;;;3.80;99.90;;;;;;4155159;28;20045;-64
2024/01/13 00:42:32;;;;;;;34.33;18.73;;;3.80;99.90;;;;;;4146094;28;20114;-66
2024/01/13 00:44:33;;;;;;;38.40;19.35;;;3.80;99.90;;;;;;4145025;28;20041;-64
2024/01/13 00:46:33;;;;;;;39.00;18.83;;;3.80;99.90;;;;;;4132821;28;20037;-65
2024/01/13 00:48:35;;;;;;;34.28;17.75;;;3.80;99.90;;;;;;4137072;28;20561;-65
2024/01/13 00:50:36;;;;;;;32.67;17.50;;;3.70;99.90;;;;;;4143077;28;20046;-64
2024/01/13 00:52:37;;;;;;;33.58;16.63;;;3.80;99.90;;;;;;4142729;28;20215;-64
2024/01/13 00:54:38;;;;;;;30.05;16.42;;;3.80;99.90;;;;;;4136413;28;20053;-64
2024/01/13 00:56:39;;;;;;;28.98;16.05;;;3.80;99.90;;;;;;4143416;28;20037;-64
2024/01/13 00:58:40;;;;;;;31.55;16.90;;;3.80;99.90;;;;;;4145412;28;20026;-64
2024/01/13 01:00:41;;;;;;;31.90;17.63;;;3.80;99.90;;;;;;4143712;28;20104;-64
2024/01/13 01:02:41;;;;;;;37.33;17.30;;;3.80;99.90;;;;;;4145599;28;20041;-67
2024/01/13 01:04:42;;;;;;;35.08;17.65;;;3.80;99.90;;;;;;4141864;28;20107;-66
2024/01/13 01:06:42;;;;;;;34.53;18.35;;;3.80;99.90;;;;;;4134648;28;20593;-67
2024/01/13 01:08:43;;;;;;;30.52;17.73;;;3.80;99.90;;;;;;4130774;28;20026;-66
2024/01/13 01:10:43;;;;;;;31.08;16.65;;;3.80;99.90;;;;;;4135767;28;20034;-66
2024/01/13 01:12:44;;;;;;;37.42;18.88;;;3.80;99.90;;;;;;4135812;28;20022;-66
2024/01/13 01:14:45;;;;;;;33.95;18.48;;;3.80;99.90;;;;;;4130534;28;20041;-67
2024/01/13 01:16:45;;;;;;;38.83;19.08;;;3.80;99.90;;;;;;4139766;28;20372;-66
2024/01/13 01:18:46;;;;;;;36.03;19.00;;;3.80;99.90;;;;;;4144479;28;20402;-67
2024/01/13 01:20:47;;;;;;;31.65;17.60;;;3.80;99.90;;;;;;4141889;28;20594;-66
2024/01/13 01:22:47;;;;;;;34.28;18.45;;;3.80;99.90;;;;;;4144971;28;20069;-70
2024/01/13 01:24:48;;;;;;;35.28;17.98;;;3.80;99.90;;;;;;4143185;28;20037;-70
2024/01/13 01:26:48;;;;;;;32.17;18.25;;;3.80;99.90;;;;;;4140506;28;20079;-69
2024/01/13 01:28:49;;;;;;;34.10;19.02;;;3.80;99.90;;;;;;4145235;28;20111;-69
2024/01/13 01:30:50;;;;;;;31.88;17.25;;;3.80;99.90;;;;;;4143439;28;20038;-70
2024/01/13 01:32:50;;;;;;;34.92;19.33;;;3.80;99.90;;;;;;4145307;28;20389;-70
2024/01/13 01:34:51;;;;;;;35.53;18.48;;;3.80;99.90;;;;;;4142680;28;20216;-70
2024/01/13 01:36:51;;;;;;;35.90;19.15;;;3.80;99.90;;;;;;4135679;28;20119;-69
2024/01/13 01:38:52;;;;;;;34.03;19.50;;;3.80;99.90;;;;;;4145327;28;20026;-71
2024/01/13 01:40:54;;;;;;;35.95;19.35;;;3.80;99.90;;;;;;4143580;28;20049;-70
2024/01/13 01:42:54;;;;;;;35.40;18.50;;;3.80;99.90;;;;;;4141405;28;20038;-69
2024/01/13 01:44:55;;;;;;;43.25;20.33;;;3.80;99.90;;;;;;4151570;28;20513;-71
2024/01/13 01:46:59;;;;;;;31.92;18.02;;;3.80;99.90;;;;;;4130897;28;20046;-70
2024/01/13 01:48:59;;;;;;;40.03;21.25;;;3.70;99.90;;;;;;4135773;28;20046;-70
2024/01/13 01:51:00;;;;;;;32.08;18.60;;;3.70;99.90;;;;;;4125353;28;20045;-70
2024/01/13 01:53:01;;;;;;;34.63;19.63;;;3.70;99.90;;;;;;4120082;28;20065;-69
2024/01/13 01:55:01;;;;;;;32.08;18.13;;;3.70;99.90;;;;;;4127971;28;20046;-70
2024/01/13 01:57:03;;;;;;;31.05;17.33;;;3.80;99.90;;;;;;4142950;28;20087;-69
2024/01/13 01:59:04;;;;;;;30.27;16.37;;;3.80;99.90;;;;;;4144981;28;20438;-69
2024/01/13 02:01:07;;;;;;;30.08;16.88;;;3.80;99.90;;;;;;4136624;28;20034;-70
2024/01/13 02:03:08;;;;;;;34.10;19.40;;;3.80;99.90;;;;;;4143707;28;20156;-70
2024/01/13 02:05:09;;;;;;;35.17;18.65;;;3.80;99.90;;;;;;4138558;28;20038;-69
2024/01/13 02:07:11;;;;;;;35.00;18.60;;;3.80;99.90;;;;;;4131905;28;20494;-69
2024/01/13 02:09:14;;;;;;;35.15;18.58;;;3.80;99.90;;;;;;4141866;28;20037;-70
2024/01/13 02:11:15;;;;;;;34.78;19.15;;;3.80;99.90;;;;;;4142977;28;20037;-70
2024/01/13 02:13:15;;;;;;;33.33;18.10;;;3.80;99.90;;;;;;4144078;28;20027;-69
2024/01/13 02:15:16;;;;;;;36.00;19.70;;;3.80;99.90;;;;;;4132996;28;20537;-70
2024/01/13 02:17:16;;;;;;;36.03;19.67;;;3.80;99.90;;;;;;4134132;28;20195;-70
2024/01/13 02:19:17;;;;;;;41.10;20.83;;;3.80;99.90;;;;;;4140759;28;20038;-70
2024/01/13 02:21:18;;;;;;;40.33;20.38;;;3.80;99.90;;;;;;4138717;28;20316;-70
2024/01/13 02:23:18;;;;;;;35.58;20.33;;;3.80;99.90;;;;;;4134495;28;20033;-70
2024/01/13 02:25:19;;;;;;;36.00;18.60;;;3.80;99.90;;;;;;4138817;28;20109;-70
2024/01/13 02:27:19;;;;;;;32.97;18.52;;;3.80;99.90;;;;;;4143691;28;20026;-70
2024/01/13 02:29:20;;;;;;;32.92;18.35;;;3.80;99.90;;;;;;4143622;28;20112;-70
2024/01/13 02:31:21;;;;;;;36.95;17.95;;;3.80;99.90;;;;;;4142284;28;20038;-69
2024/01/13 02:33:21;;;;;;;36.55;20.65;;;3.80;99.90;;;;;;4143479;28;20121;-63
2024/01/13 02:35:22;;;;;;;32.80;19.35;;;3.80;99.90;;;;;;4157509;28;20021;-63
2024/01/13 02:37:22;;;;;;;33.45;18.80;;;3.80;99.90;;;;;;4134659;28;20039;-63
2024/01/13 02:39:23;;;;;;;35.50;19.33;;;3.80;99.90;;;;;;4133507;28;20478;-63
2024/01/13 02:41:24;;;;;;;36.65;19.25;;;3.80;99.90;;;;;;4142457;28;20041;-63
2024/01/13 02:43:24;;;;;;;36.92;19.38;;;3.80;99.90;;;;;;4143720;28;20497;-63
2024/01/13 02:45:25;;;;;;;34.63;18.98;;;3.80;99.90;;;;;;4137278;28;20043;-63
2024/01/13 02:47:36;;;;;;;32.10;19.30;;;3.80;99.90;;;;;;4139260;28;20033;-63
2024/01/13 02:49:36;;;;;;;35.38;17.88;;;3.80;99.90;;;;;;4142336;28;20045;-63
2024/01/13 02:51:37;;;;;;;32.33;18.55;;;3.80;99.90;;;;;;4141094;28;20482;-63
2024/01/13 02:53:37;;;;;;;34.53;19.13;;;3.80;99.90;;;;;;4144603;28;20050;-63
2024/01/13 02:55:39;;;;;;;31.73;17.85;;;3.80;99.90;;;;;;4132479;28;20035;-64
2024/01/13 02:57:39;;;;;;;31.60;19.20;;;3.80;99.90;;;;;;4128799;28;20023;-63
2024/01/13 02:59:40;;;;;;;33.78;18.25;;;3.80;99.90;;;;;;4126428;28;20038;-63
2024/01/13 03:01:40;;;;;;;34.55;18.50;;;3.80;99.90;;;;;;4136529;28;20518;-63
2024/01/13 03:03:41;;;;;;;29.80;17.73;;;3.70;99.90;;;;;;4142695;28;20397;-63
2024/01/13 03:05:42;;;;;;;29.05;17.23;;;3.70;99.90;;;;;;4134781;28;20037;-62
2024/01/13 03:07:42;;;;;;;34.85;19.45;;;3.80;99.90;;;;;;4137913;28;20117;-63
2024/01/13 03:09:43;;;;;;;36.53;18.35;;;3.80;99.90;;;;;;4134211;28;20045;-63
2024/01/13 03:11:43;;;;;;;34.28;17.17;;;3.80;99.90;;;;;;4137843;28;20089;-63
2024/01/13 03:13:44;;;;;;;35.50;19.10;;;3.80;99.90;;;;;;4141327;28;20095;-62
2024/01/13 03:15:45;;;;;;;34.13;18.65;;;3.80;99.90;;;;;;4135424;28;20026;-63
2024/01/13 03:17:45;;;;;;;33.50;18.38;;;3.80;99.90;;;;;;4139231;28;20030;-63
2024/01/13 03:19:46;;;;;;;32.30;18.27;;;3.80;99.90;;;;;;4142147;28;20042;-62
2024/01/13 03:21:46;;;;;;;33.08;19.00;;;3.80;99.90;;;;;;4142992;28;20030;-62
2024/01/13 03:23:47;;;;;;;33.67;18.55;;;3.70;99.90;;;;;;4141064;28;20494;-67
2024/01/13 03:25:48;;;;;;;32.70;17.80;;;3.70;99.90;;;;;;4129466;28;20113;-66
2024/01/13 03:27:48;;;;;;;35.38;19.20;;;3.70;99.90;;;;;;4140841;28;20042;-66
2024/01/13 03:29:49;;;;;;;32.75;18.52;;;3.70;99.90;;;;;;4145950;28;20026;-66
2024/01/13 03:31:49;;;;;;;33.10;18.35;;;3.80;99.90;;;;;;4145907;28;20058;-66
2024/01/13 03:33:50;;;;;;;32.92;17.75;;;3.80;99.90;;;;;;4147033;28;20113;-67
2024/01/13 03:35:51;;;;;;;32.67;18.00;;;3.70;99.90;;;;;;4145108;28;20042;-66
2024/01/13 03:37:51;;;;;;;29.58;17.15;;;3.70;99.90;;;;;;4138477;28;20370;-67
2024/01/13 03:39:52;;;;;;;35.78;18.70;;;3.80;99.90;;;;;;4146761;28;20034;-67
2024/01/13 03:41:53;;;;;;;35.50;18.55;;;3.70;99.90;;;;;;4145445;28;20513;-68
2024/01/13 03:43:53;;;;;;;33.33;18.58;;;3.80;99.90;;;;;;4147665;28;20473;-82
2024/01/13 03:45:54;;;;;;;31.67;17.90;;;3.80;99.90;;;;;;4141188;28;20041;-83
2024/01/13 03:47:54;;;;;;;36.42;18.27;;;3.80;99.90;;;;;;4138631;28;20064;-84
2024/01/13 03:49:55;;;;;;;30.60;16.48;;;3.70;99.90;;;;;;4141007;28;20050;-84
2024/01/13 03:51:55;;;;;;;35.03;18.13;;;3.70;99.90;;;;;;4136273;28;20042;-84
2024/01/13 03:53:56;;;;;;;27.33;15.80;;;3.70;99.90;;;;;;4139923;28;20542;-83
2024/01/13 03:55:57;;;;;;;27.02;15.90;;;3.70;99.90;;;;;;4141828;28;20040;-84
2024/01/13 03:57:57;;;;;;;32.00;18.42;;;3.80;99.90;;;;;;4143156;28;20096;-84
2024/01/13 03:59:58;;;;;;;27.85;17.17;;;3.70;99.90;;;;;;4143367;28;20089;-85
2024/01/13 04:01:58;;;;;;;35.30;18.55;;;3.70;99.90;;;;;;4142126;28;20026;-85
2024/01/13 04:03:59;;;;;;;36.70;19.65;;;3.80;99.90;;;;;;4146682;28;20053;-84
2024/01/13 04:06:03;;;;;;;33.13;17.83;;;3.80;99.90;;;;;;4143523;28;20038;-84
2024/01/13 04:08:04;;;;;;;36.50;19.35;;;3.80;99.90;;;;;;4145236;28;20060;-81
2024/01/13 04:10:05;;;;;;;29.35;16.95;;;3.80;99.90;;;;;;4144909;28;20117;-82
2024/01/13 04:12:06;;;;;;;31.17;17.25;;;3.80;99.90;;;;;;4145935;28;20041;-84
2024/01/13 04:14:07;;;;;;;33.72;17.13;;;3.80;99.90;;;;;;4146139;28;20512;-84
2024/01/13 04:16:08;;;;;;;32.13;17.13;;;3.80;99.90;;;;;;4143395;28;20038;-84
2024/01/13 04:18:09;;;;;;;29.48;15.90;;;3.80;99.90;;;;;;4144837;28;20046;-84
2024/01/13 04:20:09;;;;;;;30.77;15.95;;;3.80;99.90;;;;;;4141934;28;20065;-83
2024/01/13 04:22:10;;;;;;;29.05;14.95;;;3.80;99.90;;;;;;4130252;28;20022;-84
2024/01/13 04:24:10;;;;;;;33.20;17.80;;;3.80;99.90;;;;;;4134667;28;20056;-84
2024/01/13 04:26:11;;;;;;;28.92;16.50;;;3.80;99.90;;;;;;4143840;28;20037;-84
2024/01/13 04:28:12;;;;;;;34.80;17.58;;;3.80;99.90;;;;;;4139258;28;20401;-84
2024/01/13 04:30:12;;;;;;;25.83;14.43;;;3.80;99.90;;;;;;4146138;28;20069;-83
2024/01/13 04:32:13;;;;;;;27.25;15.40;;;3.80;99.90;;;;;;4138521;28;20398;-70
2024/01/13 04:34:14;;;;;;;28.88;16.55;;;3.80;99.90;;;;;;4130665;28;20062;-84
2024/01/13 04:36:14;;;;;;;29.17;16.52;;;3.80;99.90;;;;;;4134598;28;20367;-84
2024/01/13 04:38:15;;;;;;;29.58;16.65;;;3.90;99.90;;;;;;4143890;28;20045;-84
2024/01/13 04:40:16;;;;;;;32.50;16.77;;;3.90;99.90;;;;;;4145220;28;20443;-84
2024/01/13 04:42:16;;;;;;;27.55;15.57;;;3.90;99.90;;;;;;4145530;28;20501;-84
2024/01/13 04:44:17;;;;;;;32.22;15.98;;;3.90;99.90;;;;;;4146174;28;20423;-84
2024/01/13 04:46:18;;;;;;;30.42;16.63;;;3.90;99.90;;;;;;4141633;28;20034;-84
2024/01/13 04:48:19;;;;;;;27.52;15.27;;;3.90;99.90;;;;;;4138812;28;20068;-84
2024/01/13 04:50:19;;;;;;;31.80;17.00;;;3.90;99.90;;;;;;4142437;28;20034;-85
2024/01/13 04:52:20;;;;;;;29.42;15.68;;;3.90;99.90;;;;;;4146269;28;20040;-72
2024/01/13 04:54:20;;;;;;;26.48;15.07;;;3.90;99.90;;;;;;4143523;28;20103;-71
2024/01/13 04:56:21;;;;;;;25.75;14.82;;;3.80;99.90;;;;;;4140692;28;20120;-71
2024/01/13 04:58:21;;;;;;;28.25;15.25;;;3.90;99.90;;;;;;4144695;28;20037;-70
2024/01/13 05:00:22;;;;;;;27.33;15.75;;;3.80;99.90;;;;;;4144940;28;20042;-71
2024/01/13 05:02:22;;;;;;;28.55;15.77;;;3.80;99.90;;;;;;4141819;28;20038;-71
2024/01/13 05:04:23;;;;;;;23.92;13.93;;;3.80;99.90;;;;;;4145024;28;20045;-70
2024/01/13 05:06:24;;;;;;;29.50;15.68;;;3.80;99.90;;;;;;4140432;28;20038;-71
2024/01/13 05:08:24;;;;;;;32.00;16.55;;;3.80;99.90;;;;;;4144434;28;20113;-71
2024/01/13 05:10:25;;;;;;;27.65;15.85;;;3.80;99.90;;;;;;4143175;28;20046;-71
2024/01/13 05:12:26;;;;;;;26.20;15.68;;;3.80;99.90;;;;;;4131741;28;20027;-70
2024/01/13 05:14:26;;;;;;;28.38;16.27;;;3.80;99.90;;;;;;4137788;28;20157;-71
2024/01/13 05:16:27;;;;;;;29.08;16.40;;;3.80;99.90;;;;;;4141962;28;20486;-71
2024/01/13 05:18:27;;;;;;;25.17;15.25;;;3.80;99.90;;;;;;4129684;28;20026;-71
2024/01/13 05:20:28;;;;;;;25.65;14.32;;;3.80;99.90;;;;;;4133443;28;20038;-71
2024/01/13 05:22:29;;;;;;;24.92;14.82;;;3.80;99.90;;;;;;4141337;28;20034;-71
2024/01/13 05:24:29;;;;;;;23.40;14.05;;;3.80;99.90;;;;;;4143915;28;20129;-71
2024/01/13 05:26:30;;;;;;;24.40;13.25;;;3.80;99.90;;;;;;4136088;28;20038;-71
2024/01/13 05:28:30;;;;;;;25.90;14.85;;;3.80;99.90;;;;;;4136340;28;20042;-71
2024/01/13 05:30:34;;;;;;;30.98;16.50;;;3.80;99.90;;;;;;4144381;28;20053;-71
2024/01/13 05:32:34;;;;;;;24.73;15.38;;;3.80;99.90;;;;;;4145038;28;20026;-70
2024/01/13 05:34:35;;;;;;;29.10;15.20;;;3.80;99.90;;;;;;4142727;28;20049;-70
2024/01/13 05:36:35;;;;;;;23.13;13.05;;;3.80;99.90;;;;;;4139281;28;20042;-71
2024/01/13 05:38:36;;;;;;;22.30;13.57;;;3.80;99.90;;;;;;4144304;28;20109;-70
2024/01/13 05:40:40;;;;;;;24.58;13.45;;;3.80;99.90;;;;;;4144229;28;20121;-70
2024/01/13 05:42:41;;;;;;;24.60;14.05;;;3.80;99.90;;;;;;4133586;28;20030;-64
2024/01/13 05:44:42;;;;;;;21.80;13.32;;;3.80;99.90;;;;;;4137659;28;20461;-64
2024/01/13 05:46:42;;;;;;;21.50;13.05;;;3.80;99.90;;;;;;4139596;28;20673;-64
2024/01/13 05:48:43;;;;;;;24.15;13.23;;;3.70;99.90;;;;;;4134909;28;20057;-64
2024/01/13 05:50:44;;;;;;;23.80;13.40;;;3.80;99.90;;;;;;4134057;28;20038;-64
2024/01/13 05:52:44;;;;;;;22.33;13.38;;;3.80;99.90;;;;;;4137220;28;20061;-64
2024/01/13 05:54:45;;;;;;;21.90;12.77;;;3.80;99.90;;;;;;4132709;28;20424;-64
2024/01/13 05:56:45;;;;;;;20.95;12.35;;;3.80;99.90;;;;;;4140839;28;20397;-65
2024/01/13 05:58:46;;;;;;;19.48;11.70;;;3.80;99.90;;;;;;4133751;28;20034;-64
2024/01/13 06:00:47;;;;;;;18.38;11.25;;;3.80;99.90;;;;;;4137139;28;20037;-64
2024/01/13 06:02:47;;;;;;;19.80;11.43;;;3.80;99.90;;;;;;4139392;28;20121;-67
2024/01/13 06:04:48;;;;;;;23.15;12.88;;;3.80;99.90;;;;;;4138020;28;20037;-67
2024/01/13 06:06:48;;;;;;;23.63;12.77;;;3.80;99.90;;;;;;4143433;28;20045;-67
2024/01/13 06:08:49;;;;;;;19.35;12.05;;;3.80;99.90;;;;;;4144173;28;20053;-66
2024/01/13 06:10:50;;;;;;;20.48;11.48;;;3.80;99.90;;;;;;4143883;28;20402;-67
2024/01/13 06:12:51;;;;;;;20.13;11.63;;;3.80;99.90;;;;;;4136826;28;20068;-67
2024/01/13 06:14:52;;;;;;;19.90;12.43;;;3.80;99.90;;;;;;4137307;28;20045;-66
2024/01/13 06:16:52;;;;;;;23.55;12.23;;;3.80;99.90;;;;;;4134713;28;20057;-67
2024/01/13 06:18:53;;;;;;;21.73;11.98;;;3.80;99.90;;;;;;4135853;28;20042;-67
2024/01/13 06:21:12;;;;;;;17.85;11.40;;;3.90;99.90;;;;;;4135841;28;20562;-67
2024/01/13 06:23:13;;;;;;;20.90;12.40;;;3.90;99.90;;;;;;4130494;28;20034;-67
2024/01/13 06:25:13;;;;;;;21.58;12.60;;;3.90;99.90;;;;;;4133576;28;20053;-66
2024/01/13 06:27:14;;;;;;;17.30;11.40;;;3.90;99.90;;;;;;4141138;28;20038;-67
2024/01/13 06:29:15;;;;;;;20.15;10.90;;;3.90;99.90;;;;;;4137581;28;20072;-67
2024/01/13 06:31:15;;;;;;;19.90;12.10;;;3.90;99.90;;;;;;4129747;28;20398;-67
2024/01/13 06:33:16;;;;;;;23.83;12.73;;;3.90;99.90;;;;;;4135816;28;20049;-67
2024/01/13 06:35:16;;;;;;;18.77;10.70;;;3.90;99.90;;;;;;4136849;28;20041;-67
2024/01/13 06:37:17;;;;;;;16.38;9.82;;;3.80;99.90;;;;;;4137461;28;20462;-67
2024/01/13 06:39:18;;;;;;;16.50;10.63;;;3.80;99.90;;;;;;4140518;28;20092;-66
2024/01/13 06:41:18;;;;;;;20.35;10.98;;;3.90;99.90;;;;;;4137443;28;20022;-66
2024/01/13 06:43:19;;;;;;;15.48;9.75;;;3.90;99.90;;;;;;4139177;28;20057;-66
2024/01/13 06:45:19;;;;;;;15.27;10.43;;;3.90;99.90;;;;;;4135548;28;20363;-67
2024/01/13 06:47:20;;;;;;;17.63;10.48;;;3.90;99.90;;;;;;4140949;28;20038;-67
2024/01/13 06:49:21;;;;;;;16.30;9.60;;;3.90;99.90;;;;;;4139300;28;20129;-68
2024/01/13 06:51:21;;;;;;;16.88;9.85;;;3.90;99.90;;;;;;4135348;28;20038;-66
2024/01/13 06:53:22;;;;;;;16.15;9.80;;;3.90;99.90;;;;;;4129591;28;20042;-70
2024/01/13 06:55:24;;;;;;;15.75;8.98;;;3.90;99.90;;;;;;4128212;28;20050;-70
2024/01/13 06:57:25;;;;;;;17.27;10.15;;;3.90;99.90;;;;;;4137796;28;20037;-70
2024/01/13 06:59:26;;;;;;;14.40;8.63;;;3.80;99.90;;;;;;4139858;28;20072;-69
2024/01/13 07:01:26;;;;;;;14.10;8.60;;;3.90;99.90;;;;;;4140077;28;20045;-70
2024/01/13 07:03:27;;;;;;;15.65;8.73;;;3.90;99.90;;;;;;4142406;28;20030;-70
2024/01/13 07:05:28;;;;;;;13.45;8.40;;;3.90;99.90;;;;;;4140977;28;20117;-69
2024/01/13 07:07:28;;;;;;;12.05;8.02;;;3.90;99.90;;;;;;4142076;28;20034;-69
2024/01/13 07:09:29;;;;;;;12.50;8.32;;;3.90;99.90;;;;;;4142799;28;20552;-67
2024/01/13 07:11:29;;;;;;;12.23;8.30;;;3.90;99.90;;;;;;4139085;28;20030;-69
2024/01/13 07:13:30;;;;;;;13.35;7.85;;;3.90;99.90;;;;;;4144074;28;20395;-80
2024/01/13 07:15:30;;;;;;;13.23;8.05;;;3.90;99.90;;;;;;4140889;28;20094;-77
2024/01/13 07:17:31;;;;;;;11.90;7.78;;;3.90;99.90;;;;;;4139569;28;20030;-76
2024/01/13 07:19:32;;;;;;;10.50;7.07;;;3.90;99.90;;;;;;4141395;28;20037;-74
2024/01/13 07:21:33;;;;;;;12.73;8.35;;;3.90;99.90;;;;;;4141001;28;20076;-75
2024/01/13 07:23:33;;;;;;;12.98;8.55;;;3.90;99.90;;;;;;4139933;28;20446;-75
2024/01/13 07:25:35;;;;;;;14.23;8.55;;;3.90;99.90;;;;;;4140639;28;20030;-75
2024/01/13 07:27:35;;;;;;;12.25;7.88;;;3.90;99.90;;;;;;4139931;28;20041;-75
2024/01/13 07:29:36;;;;;;;16.92;10.00;;;3.90;99.90;;;;;;4142339;28;20034;-74
2024/01/13 07:31:37;;;;;;;16.33;9.40;;;3.80;99.90;;;;;;4141978;28;20494;-75
2024/01/13 07:33:37;;;;;;;14.15;9.15;;;3.80;99.90;;;;;;4135953;28;20506;-74
2024/01/13 07:35:38;;;;;;;12.43;8.73;;;3.90;99.90;;;;;;4138262;28;20440;-74
2024/01/13 07:37:39;;;;;;;14.00;9.43;;;3.80;99.90;;;;;;4142013;28;20030;-74
2024/01/13 07:39:40;;;;;;;13.93;9.40;;;3.80;99.90;;;;;;4135650;28;20037;-73
2024/01/13 07:41:40;;;;;;;15.70;10.43;;;3.90;99.90;;;;;;4140359;28;20030;-73
2024/01/13 07:43:41;;;;;;;17.58;10.95;;;3.90;99.90;;;;;;4141835;28;20053;-73
2024/01/13 07:45:42;;;;;;;19.50;11.82;;;3.90;99.90;;;;;;4140134;28;20034;-73
2024/01/13 07:47:43;;;;;;;16.98;10.80;;;3.80;99.90;;;;;;4136873;28;20045;-73
2024/01/13 07:49:43;;;;;;;18.65;11.60;;;3.80;99.90;;;;;;4141456;28;20046;-74
2024/01/13 07:51:49;;;;;;;21.20;12.63;;;3.80;99.90;;;;;;4140776;28;20033;-74
2024/01/13 07:53:50;;;;;;;21.50;12.70;;;3.80;99.90;;;;;;4141092;28;20037;-74
2024/01/13 07:55:50;;;;;;;23.23;14.05;;;3.70;99.90;;;;;;4134571;28;20368;-74
2024/01/13 07:57:51;;;;;;;19.13;12.57;;;3.80;99.90;;;;;;4136578;28;20030;-74
2024/01/13 07:59:51;;;;;;;22.15;13.32;;;3.70;99.90;;;;;;4142318;28;20036;-74
2024/01/13 08:01:52;;;;;;;24.05;14.95;;;3.70;99.90;;;;;;4134592;28;20439;-75
2024/01/13 08:03:52;;;;;;;24.73;15.30;;;3.70;99.90;;;;;;4142082;28;20026;-71
2024/01/13 08:05:53;;;;;;;31.48;17.58;;;3.80;99.90;;;;;;4136549;28;20042;-71
2024/01/13 08:07:54;;;;;;;25.13;16.73;;;3.70;99.90;;;;;;4136954;28;20120;-71
2024/01/13 08:09:54;;;;;;;26.20;17.17;;;3.70;99.90;;;;;;4142571;28;20045;-71
2024/01/13 08:11:55;;;;;;;26.85;16.95;;;3.70;99.90;;;;;;4140952;28;20042;-71
2024/01/13 08:13:56;;;;;;;27.35;16.50;;;3.70;99.90;;;;;;4145347;28;20034;-70
2024/01/13 08:15:58;;;;;;;26.80;16.80;;;3.70;99.90;;;;;;4142172;28;20026;-70
2024/01/13 08:17:58;;;;;;;25.65;16.05;;;3.70;99.90;;;;;;4144737;28;20503;-70
2024/01/13 08:19:59;;;;;;;29.13;17.52;;;3.70;99.90;;;;;;4145584;28;20045;-70
2024/01/13 08:21:59;;;;;;;24.33;16.15;;;3.70;99.90;;;;;;4141821;28;20129;-70
2024/01/13 08:24:00;;;;;;;29.65;18.58;;;3.60;99.90;;;;;;4142803;28;20129;-72
2024/01/13 08:26:02;;;;;;;26.20;16.88;;;3.70;99.90;;;;;;4143960;28;20030;-71
2024/01/13 08:28:02;;;;;;;28.70;18.55;;;3.70;99.90;;;;;;4141494;28;20432;-71
2024/01/13 08:30:04;;;;;;;27.48;17.88;;;3.70;99.90;;;;;;4146047;28;20050;-71
2024/01/13 08:32:05;;;;;;;31.90;17.60;;;3.70;99.90;;;;;;4142899;28;20125;-72
2024/01/13 08:34:06;;;;;;;28.27;17.33;;;3.70;99.90;;;;;;4146098;28;20042;-73
2024/01/13 08:36:07;;;;;;;30.48;18.48;;;3.70;99.90;;;;;;4142569;28;20502;-72
2024/01/13 08:38:07;;;;;;;26.60;16.70;;;3.70;99.90;;;;;;4143670;28;20034;-71
2024/01/13 08:40:09;;;;;;;24.80;16.13;;;3.70;99.90;;;;;;4141695;28;20038;-71
2024/01/13 08:42:09;;;;;;;28.65;16.85;;;3.70;99.90;;;;;;4144412;28;20553;-72
2024/01/13 08:44:10;;;;;;;27.08;16.52;;;3.70;99.90;;;;;;4144447;28;20030;-72
2024/01/13 08:46:11;;;;;;;27.85;16.38;;;3.70;99.90;;;;;;4142314;28;20042;-72
2024/01/13 08:48:11;;;;;;;26.52;16.67;;;3.70;99.90;;;;;;4145363;28;20157;-71
2024/01/13 08:50:12;;;;;;;23.65;15.90;;;3.70;99.90;;;;;;4142194;28;20517;-72
2024/01/13 08:52:13;;;;;;;23.40;15.50;;;3.70;99.90;;;;;;4141316;28;20034;-70
2024/01/13 08:54:13;;;;;;;24.50;16.20;;;3.80;99.90;;;;;;4141434;28;20044;-70
2024/01/13 08:56:14;;;;;;;26.98;16.15;;;3.80;99.90;;;;;;4140482;28;20034;-73
2024/01/13 08:58:14;;;;;;;24.13;15.95;;;3.80;99.90;;;;;;4140861;28;20322;-70
2024/01/13 09:00:16;;;;;;;23.77;14.88;;;3.80;99.90;;;;;;4140571;28;20026;-71
2024/01/13 09:02:16;;;;;;;28.80;16.35;;;3.80;99.90;;;;;;4141138;28;20429;-72
2024/01/13 09:04:18;;;;;;;29.27;17.33;;;3.80;99.90;;;;;;4142512;28;20490;-73
2024/01/13 09:06:19;;;;;;;25.42;15.95;;;3.80;99.90;;;;;;4140018;28;20084;-72
2024/01/13 09:08:19;;;;;;;24.67;15.00;;;3.80;99.90;;;;;;4142736;28;20050;-72
2024/01/13 09:10:20;;;;;;;23.58;15.63;;;3.80;99.90;;;;;;4140603;28;20042;-71
2024/01/13 09:12:21;;;;;;;26.48;15.50;;;3.90;99.90;;;;;;4141714;28;20508;-64
2024/01/13 09:14:21;;;;;;;28.60;17.63;;;3.90;99.90;;;;;;4139467;28;20088;-62
2024/01/13 09:16:22;;;;;;;24.38;15.18;;;3.90;99.90;;;;;;4135215;28;20042;-62
2024/01/13 09:18:22;;;;;;;25.65;16.00;;;3.90;99.90;;;;;;4138584;28;20042;-63
2024/01/13 09:20:24;;;;;;;24.83;14.85;;;3.90;99.90;;;;;;4140094;28;20448;-71
2024/01/13 09:22:25;;;;;;;28.63;17.08;;;3.90;99.90;;;;;;4159514;22;20383;-76
2024/01/13 09:24:26;;;;;;;22.65;14.88;;;3.90;99.90;;;;;;4130526;23;20054;-71
2024/01/13 09:26:43;;;;;;;22.85;15.02;;;3.90;99.90;;;;;;4125747;28;20077;-75
2024/01/13 09:28:44;;;;;;;22.52;14.93;;;3.90;99.90;;;;;;4141845;22;20046;-71
2024/01/13 09:35:09;;;;;;;21.30;14.20;;;4.00;99.90;;;;;;4154941;28;20044;-92
2024/01/13 09:37:10;;;;;;;21.90;13.55;;;4.00;99.90;;;;;;4182515;23;20116;-71
2024/01/13 09:41:20;;;;;;;23.95;14.93;;;4.00;99.90;;;;;;4177713;28;20049;-96
2024/01/13 09:43:20;;;;;;;26.42;13.70;;;4.00;99.90;;;;;;4142791;28;20030;-90
2024/01/13 09:45:25;;;;;;;23.23;13.77;;;4.00;99.90;;;;;;4144882;28;20124;-92
2024/01/13 09:47:26;;;;;;;23.00;14.05;;;4.00;99.90;;;;;;4156772;28;20044;-94
2024/01/13 09:49:29;;;;;;;21.50;14.25;;;4.00;99.90;;;;;;4142803;28;20034;-94
2024/01/13 09:51:36;;;;;;;18.80;12.73;;;4.00;99.90;;;;;;4149626;28;20065;-94
2024/01/13 09:53:47;;;;;;;20.35;12.90;;;4.00;99.90;;;;;;4148276;28;20142;-94
2024/01/13 09:55:55;;;;;;;22.02;13.80;;;4.00;99.90;;;;;;4144826;28;20121;-93
2024/01/13 09:57:56;;;;;;;21.02;13.55;;;4.00;99.90;;;;;;4137120;28;20066;-94
2024/01/13 09:59:56;;;;;;;19.42;12.90;;;4.00;99.90;;;;;;4160418;23;20037;-66
2024/01/13 10:01:58;;;;;;;19.05;12.98;;;4.00;99.90;;;;;;4193066;28;20396;-65
2024/01/13 10:03:58;;;;;;;21.58;13.45;;;4.00;99.90;;;;;;4196870;28;20046;-65
2024/01/13 10:05:59;;;;;;;18.13;12.80;;;4.00;99.90;;;;;;4189615;28;20111;-66
2024/01/13 10:08:00;;;;;;;19.17;12.52;;;4.00;99.90;;;;;;4195340;28;20043;-65
2024/01/13 10:10:02;;;;;;;19.35;12.75;;;4.10;99.90;;;;;;4190231;28;20527;-65
2024/01/13 10:12:06;;;;;;;19.60;13.30;;;4.10;99.90;;;;;;4190272;28;20044;-65
2024/01/13 10:14:13;;;;;;;17.42;11.32;;;4.10;99.90;;;;;;4193534;28;20043;-66
2024/01/13 10:16:14;;;;;;;20.73;13.07;;;4.10;99.90;;;;;;4187055;28;20064;-66
2024/01/13 10:18:15;;;;;;;20.17;12.30;;;4.10;99.90;;;;;;4192762;28;20251;-65
2024/01/13 10:20:16;;;;;;;16.40;11.40;;;4.10;99.90;;;;;;4189465;28;20355;-65
2024/01/13 10:22:18;;;;;;;24.40;14.75;;;4.10;99.90;;;;;;4176943;28;20678;-74
2024/01/13 10:24:18;;;;;;;20.33;12.53;;;4.10;99.90;;;;;;4189440;28;20480;-74
2024/01/13 10:26:19;;;;;;;18.00;12.18;;;4.10;99.90;;;;;;4188143;28;20040;-73
2024/01/13 10:28:22;;;;;;;16.48;11.15;;;4.10;99.90;;;;;;4196130;28;20115;-73